sensor_id;sensor_type;location;lat;lon;timestamp;P1;durP1;ratioP1;P2;durP2;ratioP2
72437;SDS011;60444;43.534;-5.674;2023-02-01T00:01:43;13.35;;;6.47;;
72437;SDS011;60444;43.534;-5.674;2023-02-01T00:04:09;10.57;;;5.17;;
72437;SDS011;60444;43.534;-5.674;2023-02-01T00:06:34;10.47;;;4.60;;
72437;SDS011;60444;43.534;-5.674;2023-02-01T00:09:00;10.32;;;4.25;;
72437;SDS011;60444;43.534;-5.674;2023-02-01T00:11:25;11.40;;;5.63;;
72437;SDS011;60444;43.534;-5.674;2023-02-01T00:13:51;9.80;;;4.53;;
72437;SDS011;60444;43.534;-5.674;2023-02-01T00:16:17;9.77;;;4.90;;
72437;SDS011;60444;43.534;-5.674;2023-02-01T00:18:48;10.82;;;4.28;;
72437;SDS011;60444;43.534;-5.674;2023-02-01T00:21:17;9.35;;;4.72;;
72437;SDS011;60444;43.534;-5.674;2023-02-01T00:23:46;11.23;;;5.10;;
72437;SDS011;60444;43.534;-5.674;2023-02-01T00:26:19;8.57;;;4.40;;
72437;SDS011;60444;43.534;-5.674;2023-02-01T00:28:47;9.48;;;4.32;;
72437;SDS011;60444;43.534;-5.674;2023-02-01T00:31:14;10.93;;;5.60;;
72437;SDS011;60444;43.534;-5.674;2023-02-01T00:33:40;10.95;;;5.32;;
72437;SDS011;60444;43.534;-5.674;2023-02-01T00:36:06;11.73;;;5.53;;
72437;SDS011;60444;43.534;-5.674;2023-02-01T00:38:34;11.52;;;5.03;;
72437;SDS011;60444;43.534;-5.674;2023-02-01T00:41:15;10.02;;;5.07;;
72437;SDS011;60444;43.534;-5.674;2023-02-01T00:43:43;10.45;;;4.78;;
72437;SDS011;60444;43.534;-5.674;2023-02-01T00:46:09;10.48;;;5.35;;
72437;SDS011;60444;43.534;-5.674;2023-02-01T00:48:36;12.17;;;5.27;;
72437;SDS011;60444;43.534;-5.674;2023-02-01T00:51:05;14.60;;;6.82;;
72437;SDS011;60444;43.534;-5.674;2023-02-01T00:53:33;14.13;;;6.72;;
72437;SDS011;60444;43.534;-5.674;2023-02-01T00:56:00;12.60;;;6.93;;
72437;SDS011;60444;43.534;-5.674;2023-02-01T00:58:26;10.95;;;5.78;;
72437;SDS011;60444;43.534;-5.674;2023-02-01T01:01:05;11.40;;;4.78;;
72437;SDS011;60444;43.534;-5.674;2023-02-01T01:03:31;12.87;;;5.50;;
72437;SDS011;60444;43.534;-5.674;2023-02-01T01:05:59;12.68;;;5.70;;
72437;SDS011;60444;43.534;-5.674;2023-02-01T01:08:26;15.32;;;6.75;;
72437;SDS011;60444;43.534;-5.674;2023-02-01T01:10:52;15.20;;;6.80;;
72437;SDS011;60444;43.534;-5.674;2023-02-01T01:13:18;10.82;;;4.75;;
72437;SDS011;60444;43.534;-5.674;2023-02-01T01:15:44;11.67;;;5.20;;
72437;SDS011;60444;43.534;-5.674;2023-02-01T01:18:10;11.52;;;6.30;;
72437;SDS011;60444;43.534;-5.674;2023-02-01T01:20:36;10.93;;;5.73;;
72437;SDS011;60444;43.534;-5.674;2023-02-01T01:23:03;13.00;;;6.80;;
72437;SDS011;60444;43.534;-5.674;2023-02-01T01:25:30;11.50;;;6.10;;
72437;SDS011;60444;43.534;-5.674;2023-02-01T01:27:56;9.68;;;4.55;;
72437;SDS011;60444;43.534;-5.674;2023-02-01T01:30:22;11.97;;;6.43;;
72437;SDS011;60444;43.534;-5.674;2023-02-01T01:32:47;10.93;;;5.25;;
72437;SDS011;60444;43.534;-5.674;2023-02-01T01:35:13;11.33;;;4.83;;
72437;SDS011;60444;43.534;-5.674;2023-02-01T01:37:38;13.27;;;5.70;;
72437;SDS011;60444;43.534;-5.674;2023-02-01T01:40:04;10.32;;;5.15;;
72437;SDS011;60444;43.534;-5.674;2023-02-01T01:42:36;11.60;;;5.30;;
72437;SDS011;60444;43.534;-5.674;2023-02-01T01:45:07;10.47;;;4.90;;
72437;SDS011;60444;43.534;-5.674;2023-02-01T01:47:43;13.68;;;6.53;;
72437;SDS011;60444;43.534;-5.674;2023-02-01T01:50:13;16.35;;;7.38;;
72437;SDS011;60444;43.534;-5.674;2023-02-01T01:52:42;11.30;;;5.55;;
72437;SDS011;60444;43.534;-5.674;2023-02-01T01:55:12;13.45;;;6.28;;
72437;SDS011;60444;43.534;-5.674;2023-02-01T01:57:40;14.60;;;6.37;;
72437;SDS011;60444;43.534;-5.674;2023-02-01T02:00:10;13.85;;;6.20;;
72437;SDS011;60444;43.534;-5.674;2023-02-01T02:02:42;11.65;;;5.70;;
72437;SDS011;60444;43.534;-5.674;2023-02-01T02:05:10;12.80;;;6.53;;
72437;SDS011;60444;43.534;-5.674;2023-02-01T02:07:38;10.32;;;5.07;;
72437;SDS011;60444;43.534;-5.674;2023-02-01T02:10:08;12.43;;;5.87;;
72437;SDS011;60444;43.534;-5.674;2023-02-01T02:12:40;10.50;;;5.07;;
72437;SDS011;60444;43.534;-5.674;2023-02-01T02:15:08;12.35;;;6.40;;
72437;SDS011;60444;43.534;-5.674;2023-02-01T02:37:28;10.53;;;4.57;;
72437;SDS011;60444;43.534;-5.674;2023-02-01T02:39:57;12.25;;;5.15;;
72437;SDS011;60444;43.534;-5.674;2023-02-01T02:42:48;13.35;;;5.60;;
72437;SDS011;60444;43.534;-5.674;2023-02-01T02:45:42;12.00;;;4.93;;
72437;SDS011;60444;43.534;-5.674;2023-02-01T02:51:50;10.37;;;5.20;;
72437;SDS011;60444;43.534;-5.674;2023-02-01T02:54:40;12.38;;;5.97;;
72437;SDS011;60444;43.534;-5.674;2023-02-01T02:57:16;10.88;;;4.43;;
72437;SDS011;60444;43.534;-5.674;2023-02-01T03:00:09;10.32;;;4.55;;
72437;SDS011;60444;43.534;-5.674;2023-02-01T03:02:56;8.88;;;4.07;;
72437;SDS011;60444;43.534;-5.674;2023-02-01T03:05:42;9.40;;;4.53;;
72437;SDS011;60444;43.534;-5.674;2023-02-01T03:08:15;12.07;;;4.13;;
72437;SDS011;60444;43.534;-5.674;2023-02-01T03:10:44;12.05;;;5.43;;
72437;SDS011;60444;43.534;-5.674;2023-02-01T03:13:18;8.45;;;3.65;;
72437;SDS011;60444;43.534;-5.674;2023-02-01T03:18:34;10.57;;;5.17;;
72437;SDS011;60444;43.534;-5.674;2023-02-01T03:21:11;8.95;;;4.60;;
72437;SDS011;60444;43.534;-5.674;2023-02-01T03:23:41;11.63;;;4.60;;
72437;SDS011;60444;43.534;-5.674;2023-02-01T03:26:10;9.77;;;4.80;;
72437;SDS011;60444;43.534;-5.674;2023-02-01T03:28:40;11.35;;;4.75;;
72437;SDS011;60444;43.534;-5.674;2023-02-01T03:31:13;11.13;;;4.13;;
72437;SDS011;60444;43.534;-5.674;2023-02-01T03:33:39;9.48;;;3.83;;
72437;SDS011;60444;43.534;-5.674;2023-02-01T03:38:58;10.67;;;4.70;;
72437;SDS011;60444;43.534;-5.674;2023-02-01T03:41:32;9.80;;;4.15;;
72437;SDS011;60444;43.534;-5.674;2023-02-01T03:44:08;10.48;;;4.18;;
72437;SDS011;60444;43.534;-5.674;2023-02-01T03:47:02;9.65;;;3.83;;
72437;SDS011;60444;43.534;-5.674;2023-02-01T03:49:39;9.05;;;3.53;;
72437;SDS011;60444;43.534;-5.674;2023-02-01T03:52:13;9.57;;;4.43;;
72437;SDS011;60444;43.534;-5.674;2023-02-01T03:54:43;10.40;;;4.45;;
72437;SDS011;60444;43.534;-5.674;2023-02-01T03:57:11;12.00;;;4.43;;
72437;SDS011;60444;43.534;-5.674;2023-02-01T03:59:42;9.57;;;4.32;;
72437;SDS011;60444;43.534;-5.674;2023-02-01T04:02:09;11.50;;;6.10;;
72437;SDS011;60444;43.534;-5.674;2023-02-01T04:04:35;9.67;;;4.40;;
72437;SDS011;60444;43.534;-5.674;2023-02-01T04:07:03;12.35;;;6.38;;
72437;SDS011;60444;43.534;-5.674;2023-02-01T04:09:29;12.20;;;5.60;;
72437;SDS011;60444;43.534;-5.674;2023-02-01T04:11:54;9.77;;;3.90;;
72437;SDS011;60444;43.534;-5.674;2023-02-01T04:14:20;10.07;;;4.07;;
72437;SDS011;60444;43.534;-5.674;2023-02-01T04:16:45;11.77;;;5.13;;
72437;SDS011;60444;43.534;-5.674;2023-02-01T04:19:11;10.00;;;4.50;;
72437;SDS011;60444;43.534;-5.674;2023-02-01T04:21:38;10.75;;;4.80;;
72437;SDS011;60444;43.534;-5.674;2023-02-01T04:24:04;10.47;;;4.43;;
72437;SDS011;60444;43.534;-5.674;2023-02-01T04:26:30;10.43;;;3.45;;
72437;SDS011;60444;43.534;-5.674;2023-02-01T04:28:55;9.37;;;3.93;;
72437;SDS011;60444;43.534;-5.674;2023-02-01T04:31:21;9.50;;;4.43;;
72437;SDS011;60444;43.534;-5.674;2023-02-01T04:33:53;8.37;;;3.57;;
72437;SDS011;60444;43.534;-5.674;2023-02-01T04:36:21;11.73;;;4.22;;
72437;SDS011;60444;43.534;-5.674;2023-02-01T04:38:47;9.30;;;3.42;;
72437;SDS011;60444;43.534;-5.674;2023-02-01T04:41:13;9.93;;;3.47;;
72437;SDS011;60444;43.534;-5.674;2023-02-01T04:43:44;8.85;;;3.92;;
72437;SDS011;60444;43.534;-5.674;2023-02-01T04:46:11;8.37;;;3.27;;
72437;SDS011;60444;43.534;-5.674;2023-02-01T04:48:36;8.32;;;3.45;;
72437;SDS011;60444;43.534;-5.674;2023-02-01T04:51:02;7.23;;;3.30;;
72437;SDS011;60444;43.534;-5.674;2023-02-01T04:53:27;8.77;;;3.70;;
72437;SDS011;60444;43.534;-5.674;2023-02-01T04:55:54;10.23;;;3.35;;
72437;SDS011;60444;43.534;-5.674;2023-02-01T04:58:20;8.13;;;3.45;;
72437;SDS011;60444;43.534;-5.674;2023-02-01T05:00:46;9.02;;;3.72;;
72437;SDS011;60444;43.534;-5.674;2023-02-01T05:03:12;7.07;;;3.60;;
72437;SDS011;60444;43.534;-5.674;2023-02-01T05:05:37;7.15;;;3.10;;
72437;SDS011;60444;43.534;-5.674;2023-02-01T05:08:03;8.77;;;3.33;;
72437;SDS011;60444;43.534;-5.674;2023-02-01T05:10:28;7.90;;;3.20;;
72437;SDS011;60444;43.534;-5.674;2023-02-01T05:12:54;9.40;;;3.23;;
72437;SDS011;60444;43.534;-5.674;2023-02-01T05:15:38;9.40;;;4.15;;
72437;SDS011;60444;43.534;-5.674;2023-02-01T05:18:03;9.82;;;3.63;;
72437;SDS011;60444;43.534;-5.674;2023-02-01T05:20:29;8.53;;;3.67;;
72437;SDS011;60444;43.534;-5.674;2023-02-01T05:22:54;10.30;;;3.80;;
72437;SDS011;60444;43.534;-5.674;2023-02-01T05:25:20;6.97;;;2.80;;
72437;SDS011;60444;43.534;-5.674;2023-02-01T05:27:45;9.73;;;3.30;;
72437;SDS011;60444;43.534;-5.674;2023-02-01T05:30:11;9.87;;;4.10;;
72437;SDS011;60444;43.534;-5.674;2023-02-01T05:32:37;10.02;;;3.90;;
72437;SDS011;60444;43.534;-5.674;2023-02-01T05:35:02;11.20;;;3.33;;
72437;SDS011;60444;43.534;-5.674;2023-02-01T05:37:28;8.15;;;3.10;;
72437;SDS011;60444;43.534;-5.674;2023-02-01T05:39:54;7.17;;;3.07;;
72437;SDS011;60444;43.534;-5.674;2023-02-01T05:42:19;8.80;;;3.43;;
72437;SDS011;60444;43.534;-5.674;2023-02-01T05:44:45;10.57;;;3.25;;
72437;SDS011;60444;43.534;-5.674;2023-02-01T05:47:10;9.30;;;3.10;;
72437;SDS011;60444;43.534;-5.674;2023-02-01T05:49:37;11.10;;;3.70;;
72437;SDS011;60444;43.534;-5.674;2023-02-01T05:52:03;7.97;;;2.87;;
72437;SDS011;60444;43.534;-5.674;2023-02-01T05:54:28;8.35;;;2.90;;
72437;SDS011;60444;43.534;-5.674;2023-02-01T05:56:54;9.20;;;4.27;;
72437;SDS011;60444;43.534;-5.674;2023-02-01T05:59:19;7.73;;;3.00;;
72437;SDS011;60444;43.534;-5.674;2023-02-01T06:01:45;8.00;;;3.22;;
72437;SDS011;60444;43.534;-5.674;2023-02-01T06:04:10;10.80;;;4.50;;
72437;SDS011;60444;43.534;-5.674;2023-02-01T06:06:36;10.33;;;3.77;;
72437;SDS011;60444;43.534;-5.674;2023-02-01T06:09:04;8.52;;;3.13;;
72437;SDS011;60444;43.534;-5.674;2023-02-01T06:11:30;9.13;;;3.30;;
72437;SDS011;60444;43.534;-5.674;2023-02-01T06:13:56;10.07;;;3.33;;
72437;SDS011;60444;43.534;-5.674;2023-02-01T06:16:21;7.50;;;2.83;;
72437;SDS011;60444;43.534;-5.674;2023-02-01T06:18:48;9.68;;;4.55;;
72437;SDS011;60444;43.534;-5.674;2023-02-01T06:21:14;8.60;;;3.03;;
72437;SDS011;60444;43.534;-5.674;2023-02-01T06:23:48;9.20;;;2.63;;
72437;SDS011;60444;43.534;-5.674;2023-02-01T06:26:20;7.78;;;2.50;;
72437;SDS011;60444;43.534;-5.674;2023-02-01T06:28:46;7.57;;;3.50;;
72437;SDS011;60444;43.534;-5.674;2023-02-01T06:31:11;7.68;;;3.08;;
72437;SDS011;60444;43.534;-5.674;2023-02-01T06:33:37;9.30;;;3.43;;
72437;SDS011;60444;43.534;-5.674;2023-02-01T06:36:04;8.27;;;3.45;;
72437;SDS011;60444;43.534;-5.674;2023-02-01T06:38:31;10.15;;;3.80;;
72437;SDS011;60444;43.534;-5.674;2023-02-01T06:40:59;8.90;;;3.30;;
72437;SDS011;60444;43.534;-5.674;2023-02-01T06:43:26;9.75;;;3.97;;
72437;SDS011;60444;43.534;-5.674;2023-02-01T06:45:52;7.37;;;3.00;;
72437;SDS011;60444;43.534;-5.674;2023-02-01T06:48:18;9.10;;;2.67;;
72437;SDS011;60444;43.534;-5.674;2023-02-01T06:50:44;7.50;;;3.00;;
72437;SDS011;60444;43.534;-5.674;2023-02-01T06:53:10;7.90;;;2.58;;
72437;SDS011;60444;43.534;-5.674;2023-02-01T06:55:35;7.40;;;2.93;;
72437;SDS011;60444;43.534;-5.674;2023-02-01T06:58:01;8.55;;;3.13;;
72437;SDS011;60444;43.534;-5.674;2023-02-01T07:00:27;7.67;;;2.90;;
72437;SDS011;60444;43.534;-5.674;2023-02-01T07:02:53;7.40;;;2.80;;
72437;SDS011;60444;43.534;-5.674;2023-02-01T07:05:20;8.13;;;2.83;;
72437;SDS011;60444;43.534;-5.674;2023-02-01T07:07:46;6.90;;;2.80;;
72437;SDS011;60444;43.534;-5.674;2023-02-01T07:10:12;7.83;;;3.37;;
72437;SDS011;60444;43.534;-5.674;2023-02-01T07:12:38;8.35;;;2.60;;
72437;SDS011;60444;43.534;-5.674;2023-02-01T07:15:04;8.27;;;2.60;;
72437;SDS011;60444;43.534;-5.674;2023-02-01T07:17:30;9.45;;;3.00;;
72437;SDS011;60444;43.534;-5.674;2023-02-01T07:19:56;9.20;;;2.63;;
72437;SDS011;60444;43.534;-5.674;2023-02-01T07:22:23;8.10;;;2.63;;
72437;SDS011;60444;43.534;-5.674;2023-02-01T07:24:49;6.83;;;2.63;;
72437;SDS011;60444;43.534;-5.674;2023-02-01T07:27:14;10.27;;;3.37;;
72437;SDS011;60444;43.534;-5.674;2023-02-01T07:29:40;8.82;;;3.15;;
72437;SDS011;60444;43.534;-5.674;2023-02-01T07:32:05;8.70;;;3.07;;
72437;SDS011;60444;43.534;-5.674;2023-02-01T07:34:31;7.77;;;2.93;;
72437;SDS011;60444;43.534;-5.674;2023-02-01T07:36:57;8.15;;;3.03;;
72437;SDS011;60444;43.534;-5.674;2023-02-01T07:39:23;8.13;;;2.80;;
72437;SDS011;60444;43.534;-5.674;2023-02-01T07:41:48;8.97;;;3.00;;
72437;SDS011;60444;43.534;-5.674;2023-02-01T07:44:14;7.23;;;2.50;;
72437;SDS011;60444;43.534;-5.674;2023-02-01T07:46:39;8.10;;;3.33;;
72437;SDS011;60444;43.534;-5.674;2023-02-01T07:49:05;7.47;;;2.50;;
72437;SDS011;60444;43.534;-5.674;2023-02-01T07:51:31;9.13;;;2.97;;
72437;SDS011;60444;43.534;-5.674;2023-02-01T07:53:57;7.57;;;2.50;;
72437;SDS011;60444;43.534;-5.674;2023-02-01T07:56:22;8.10;;;3.43;;
72437;SDS011;60444;43.534;-5.674;2023-02-01T07:58:50;7.28;;;2.67;;
72437;SDS011;60444;43.534;-5.674;2023-02-01T08:01:17;6.57;;;2.22;;
72437;SDS011;60444;43.534;-5.674;2023-02-01T08:03:58;8.43;;;2.63;;
72437;SDS011;60444;43.534;-5.674;2023-02-01T08:06:26;9.75;;;3.30;;
72437;SDS011;60444;43.534;-5.674;2023-02-01T08:08:54;9.47;;;3.20;;
72437;SDS011;60444;43.534;-5.674;2023-02-01T08:11:20;8.07;;;2.67;;
72437;SDS011;60444;43.534;-5.674;2023-02-01T08:13:46;8.60;;;2.97;;
72437;SDS011;60444;43.534;-5.674;2023-02-01T08:16:12;7.82;;;2.88;;
72437;SDS011;60444;43.534;-5.674;2023-02-01T08:18:40;6.95;;;2.97;;
72437;SDS011;60444;43.534;-5.674;2023-02-01T08:21:25;9.67;;;2.90;;
72437;SDS011;60444;43.534;-5.674;2023-02-01T08:24:01;7.63;;;2.80;;
72437;SDS011;60444;43.534;-5.674;2023-02-01T08:26:30;7.40;;;2.70;;
72437;SDS011;60444;43.534;-5.674;2023-02-01T08:28:57;8.27;;;2.83;;
72437;SDS011;60444;43.534;-5.674;2023-02-01T08:31:26;7.60;;;3.00;;
72437;SDS011;60444;43.534;-5.674;2023-02-01T08:33:53;9.02;;;3.42;;
72437;SDS011;60444;43.534;-5.674;2023-02-01T08:36:21;7.22;;;2.67;;
72437;SDS011;60444;43.534;-5.674;2023-02-01T08:38:47;6.97;;;2.80;;
72437;SDS011;60444;43.534;-5.674;2023-02-01T08:41:14;8.37;;;3.10;;
72437;SDS011;60444;43.534;-5.674;2023-02-01T08:43:41;7.30;;;3.20;;
72437;SDS011;60444;43.534;-5.674;2023-02-01T08:46:08;7.40;;;3.07;;
72437;SDS011;60444;43.534;-5.674;2023-02-01T08:48:34;8.15;;;3.40;;
72437;SDS011;60444;43.534;-5.674;2023-02-01T08:51:04;9.20;;;3.70;;
72437;SDS011;60444;43.534;-5.674;2023-02-01T08:53:31;9.57;;;3.63;;
72437;SDS011;60444;43.534;-5.674;2023-02-01T08:55:57;7.88;;;3.05;;
72437;SDS011;60444;43.534;-5.674;2023-02-01T08:58:22;9.30;;;3.20;;
72437;SDS011;60444;43.534;-5.674;2023-02-01T09:00:48;8.17;;;2.93;;
72437;SDS011;60444;43.534;-5.674;2023-02-01T09:03:14;8.02;;;3.25;;
72437;SDS011;60444;43.534;-5.674;2023-02-01T09:05:40;10.20;;;3.60;;
72437;SDS011;60444;43.534;-5.674;2023-02-01T09:08:06;7.40;;;3.00;;
72437;SDS011;60444;43.534;-5.674;2023-02-01T09:10:34;9.68;;;3.10;;
72437;SDS011;60444;43.534;-5.674;2023-02-01T09:13:00;10.38;;;3.35;;
72437;SDS011;60444;43.534;-5.674;2023-02-01T09:15:25;10.47;;;3.17;;
72437;SDS011;60444;43.534;-5.674;2023-02-01T09:17:51;8.77;;;3.38;;
72437;SDS011;60444;43.534;-5.674;2023-02-01T09:20:16;7.20;;;2.70;;
72437;SDS011;60444;43.534;-5.674;2023-02-01T09:22:43;10.57;;;3.60;;
72437;SDS011;60444;43.534;-5.674;2023-02-01T09:25:09;11.73;;;4.00;;
72437;SDS011;60444;43.534;-5.674;2023-02-01T09:27:35;9.37;;;4.03;;
72437;SDS011;60444;43.534;-5.674;2023-02-01T09:30:00;10.07;;;4.45;;
72437;SDS011;60444;43.534;-5.674;2023-02-01T09:32:26;13.70;;;5.03;;
72437;SDS011;60444;43.534;-5.674;2023-02-01T09:34:52;9.10;;;3.22;;
72437;SDS011;60444;43.534;-5.674;2023-02-01T09:37:18;13.30;;;5.18;;
72437;SDS011;60444;43.534;-5.674;2023-02-01T09:39:44;8.80;;;3.60;;
72437;SDS011;60444;43.534;-5.674;2023-02-01T09:42:19;9.68;;;3.33;;
72437;SDS011;60444;43.534;-5.674;2023-02-01T09:47:27;11.00;;;3.80;;
72437;SDS011;60444;43.534;-5.674;2023-02-01T09:50:02;11.40;;;4.40;;
72437;SDS011;60444;43.534;-5.674;2023-02-01T09:52:30;9.23;;;3.63;;
72437;SDS011;60444;43.534;-5.674;2023-02-01T09:55:01;12.18;;;4.78;;
72437;SDS011;60444;43.534;-5.674;2023-02-01T10:00:19;11.38;;;4.28;;
72437;SDS011;60444;43.534;-5.674;2023-02-01T10:02:50;8.15;;;3.05;;
72437;SDS011;60444;43.534;-5.674;2023-02-01T10:05:19;9.85;;;4.05;;
72437;SDS011;60444;43.534;-5.674;2023-02-01T10:08:03;8.60;;;3.15;;
72437;SDS011;60444;43.534;-5.674;2023-02-01T10:13:27;9.57;;;3.45;;
72437;SDS011;60444;43.534;-5.674;2023-02-01T10:21:41;10.70;;;3.40;;
72437;SDS011;60444;43.534;-5.674;2023-02-01T10:27:19;8.80;;;2.90;;
72437;SDS011;60444;43.534;-5.674;2023-02-01T10:29:52;7.05;;;2.58;;
72437;SDS011;60444;43.534;-5.674;2023-02-01T10:32:24;7.97;;;2.90;;
72437;SDS011;60444;43.534;-5.674;2023-02-01T10:34:56;8.85;;;3.10;;
72437;SDS011;60444;43.534;-5.674;2023-02-01T10:37:31;6.83;;;2.80;;
72437;SDS011;60444;43.534;-5.674;2023-02-01T10:39:59;7.85;;;2.55;;
72437;SDS011;60444;43.534;-5.674;2023-02-01T10:42:36;7.50;;;2.97;;
72437;SDS011;60444;43.534;-5.674;2023-02-01T10:45:02;7.27;;;3.13;;
72437;SDS011;60444;43.534;-5.674;2023-02-01T10:47:29;10.25;;;3.35;;
72437;SDS011;60444;43.534;-5.674;2023-02-01T10:58:48;8.95;;;3.50;;
72437;SDS011;60444;43.534;-5.674;2023-02-01T11:11:56;12.88;;;3.40;;
72437;SDS011;60444;43.534;-5.674;2023-02-01T11:16:51;14.27;;;4.27;;
72437;SDS011;60444;43.534;-5.674;2023-02-01T11:19:18;11.82;;;3.50;;
72437;SDS011;60444;43.534;-5.674;2023-02-01T11:21:44;10.27;;;2.80;;
72437;SDS011;60444;43.534;-5.674;2023-02-01T11:24:20;14.77;;;3.63;;
72437;SDS011;60444;43.534;-5.674;2023-02-01T11:26:54;9.52;;;2.75;;
72437;SDS011;60444;43.534;-5.674;2023-02-01T11:29:21;7.45;;;2.45;;
72437;SDS011;60444;43.534;-5.674;2023-02-01T11:31:55;8.57;;;2.47;;
72437;SDS011;60444;43.534;-5.674;2023-02-01T11:34:24;8.13;;;1.90;;
72437;SDS011;60444;43.534;-5.674;2023-02-01T11:36:53;13.98;;;3.53;;
72437;SDS011;60444;43.534;-5.674;2023-02-01T11:39:28;10.90;;;2.80;;
72437;SDS011;60444;43.534;-5.674;2023-02-01T11:42:15;10.77;;;2.50;;
72437;SDS011;60444;43.534;-5.674;2023-02-01T11:44:42;14.97;;;3.20;;
72437;SDS011;60444;43.534;-5.674;2023-02-01T11:47:57;10.25;;;3.13;;
72437;SDS011;60444;43.534;-5.674;2023-02-01T11:50:14;11.05;;;2.20;;
72437;SDS011;60444;43.534;-5.674;2023-02-01T11:58:27;9.87;;;2.50;;
72437;SDS011;60444;43.534;-5.674;2023-02-01T12:12:17;7.93;;;1.90;;
72437;SDS011;60444;43.534;-5.674;2023-02-01T12:22:44;6.97;;;1.35;;
72437;SDS011;60444;43.534;-5.674;2023-02-01T12:39:32;6.30;;;1.10;;
72437;SDS011;60444;43.534;-5.674;2023-02-01T12:42:16;6.82;;;1.50;;
72437;SDS011;60444;43.534;-5.674;2023-02-01T12:47:35;5.20;;;1.40;;
72437;SDS011;60444;43.534;-5.674;2023-02-01T12:53:09;4.45;;;0.85;;
72437;SDS011;60444;43.534;-5.674;2023-02-01T12:55:54;5.38;;;1.08;;
72437;SDS011;60444;43.534;-5.674;2023-02-01T13:01:07;2.55;;;0.47;;
72437;SDS011;60444;43.534;-5.674;2023-02-01T13:06:17;6.15;;;1.25;;
72437;SDS011;60444;43.534;-5.674;2023-02-01T13:11:31;5.10;;;1.20;;
72437;SDS011;60444;43.534;-5.674;2023-02-01T13:17:04;6.50;;;1.40;;
72437;SDS011;60444;43.534;-5.674;2023-02-01T13:19:59;5.00;;;1.23;;
72437;SDS011;60444;43.534;-5.674;2023-02-01T13:22:34;7.13;;;1.40;;
72437;SDS011;60444;43.534;-5.674;2023-02-01T13:27:41;5.85;;;0.93;;
72437;SDS011;60444;43.534;-5.674;2023-02-01T13:30:10;5.25;;;1.20;;
72437;SDS011;60444;43.534;-5.674;2023-02-01T13:41:11;7.47;;;1.25;;
72437;SDS011;60444;43.534;-5.674;2023-02-01T13:43:40;7.18;;;1.40;;
72437;SDS011;60444;43.534;-5.674;2023-02-01T13:46:12;10.68;;;1.30;;
72437;SDS011;60444;43.534;-5.674;2023-02-01T13:51:15;9.18;;;1.40;;
72437;SDS011;60444;43.534;-5.674;2023-02-01T13:54:00;8.45;;;1.38;;
72437;SDS011;60444;43.534;-5.674;2023-02-01T13:56:26;9.97;;;1.27;;
72437;SDS011;60444;43.534;-5.674;2023-02-01T13:58:52;10.57;;;1.10;;
72437;SDS011;60444;43.534;-5.674;2023-02-01T14:06:17;9.60;;;2.17;;
72437;SDS011;60444;43.534;-5.674;2023-02-01T14:16:40;7.05;;;1.35;;
72437;SDS011;60444;43.534;-5.674;2023-02-01T14:19:18;6.77;;;0.97;;
72437;SDS011;60444;43.534;-5.674;2023-02-01T14:21:57;7.60;;;1.20;;
72437;SDS011;60444;43.534;-5.674;2023-02-01T14:24:35;7.15;;;1.00;;
72437;SDS011;60444;43.534;-5.674;2023-02-01T14:27:35;10.10;;;1.55;;
72437;SDS011;60444;43.534;-5.674;2023-02-01T14:29:59;4.45;;;0.90;;
72437;SDS011;60444;43.534;-5.674;2023-02-01T14:35:07;9.68;;;1.40;;
72437;SDS011;60444;43.534;-5.674;2023-02-01T14:37:42;7.20;;;1.20;;
72437;SDS011;60444;43.534;-5.674;2023-02-01T14:50:18;5.22;;;1.02;;
72437;SDS011;60444;43.534;-5.674;2023-02-01T14:55:57;5.88;;;0.90;;
72437;SDS011;60444;43.534;-5.674;2023-02-01T15:01:23;7.15;;;1.00;;
72437;SDS011;60444;43.534;-5.674;2023-02-01T15:09:33;7.50;;;1.10;;
72437;SDS011;60444;43.534;-5.674;2023-02-01T15:17:33;3.60;;;0.98;;
72437;SDS011;60444;43.534;-5.674;2023-02-01T15:20:03;4.88;;;1.33;;
72437;SDS011;60444;43.534;-5.674;2023-02-01T15:22:37;3.83;;;0.52;;
72437;SDS011;60444;43.534;-5.674;2023-02-01T15:25:03;4.13;;;0.90;;
72437;SDS011;60444;43.534;-5.674;2023-02-01T15:27:29;4.75;;;1.30;;
72437;SDS011;60444;43.534;-5.674;2023-02-01T15:30:06;3.83;;;0.93;;
72437;SDS011;60444;43.534;-5.674;2023-02-01T15:32:35;4.00;;;0.70;;
72437;SDS011;60444;43.534;-5.674;2023-02-01T15:35:30;5.63;;;1.10;;
72437;SDS011;60444;43.534;-5.674;2023-02-01T15:43:33;6.00;;;1.20;;
72437;SDS011;60444;43.534;-5.674;2023-02-01T15:46:07;2.85;;;0.68;;
72437;SDS011;60444;43.534;-5.674;2023-02-01T15:48:42;3.45;;;0.95;;
72437;SDS011;60444;43.534;-5.674;2023-02-01T15:51:14;3.33;;;0.70;;
72437;SDS011;60444;43.534;-5.674;2023-02-01T15:53:46;4.68;;;1.00;;
72437;SDS011;60444;43.534;-5.674;2023-02-01T15:56:15;3.70;;;0.60;;
72437;SDS011;60444;43.534;-5.674;2023-02-01T15:58:48;4.40;;;0.80;;
72437;SDS011;60444;43.534;-5.674;2023-02-01T16:01:17;5.03;;;1.00;;
72437;SDS011;60444;43.534;-5.674;2023-02-01T16:03:44;3.83;;;0.70;;
72437;SDS011;60444;43.534;-5.674;2023-02-01T16:08:55;9.80;;;1.10;;
72437;SDS011;60444;43.534;-5.674;2023-02-01T16:11:40;5.63;;;0.82;;
72437;SDS011;60444;43.534;-5.674;2023-02-01T16:14:12;8.25;;;1.77;;
72437;SDS011;60444;43.534;-5.674;2023-02-01T16:16:37;5.67;;;1.10;;
72437;SDS011;60444;43.534;-5.674;2023-02-01T16:19:03;6.32;;;1.30;;
72437;SDS011;60444;43.534;-5.674;2023-02-01T16:21:28;11.00;;;2.23;;
72437;SDS011;60444;43.534;-5.674;2023-02-01T16:23:54;8.13;;;1.50;;
72437;SDS011;60444;43.534;-5.674;2023-02-01T16:26:19;7.37;;;1.47;;
72437;SDS011;60444;43.534;-5.674;2023-02-01T16:28:45;9.80;;;1.90;;
72437;SDS011;60444;43.534;-5.674;2023-02-01T16:31:15;12.40;;;1.70;;
72437;SDS011;60444;43.534;-5.674;2023-02-01T16:33:49;10.68;;;2.47;;
72437;SDS011;60444;43.534;-5.674;2023-02-01T16:36:16;5.30;;;1.00;;
72437;SDS011;60444;43.534;-5.674;2023-02-01T16:38:42;8.10;;;1.40;;
72437;SDS011;60444;43.534;-5.674;2023-02-01T16:41:14;7.90;;;1.30;;
72437;SDS011;60444;43.534;-5.674;2023-02-01T16:43:41;7.55;;;1.48;;
72437;SDS011;60444;43.534;-5.674;2023-02-01T16:46:11;5.97;;;1.60;;
72437;SDS011;60444;43.534;-5.674;2023-02-01T16:48:40;11.70;;;1.88;;
72437;SDS011;60444;43.534;-5.674;2023-02-01T16:51:08;5.55;;;1.10;;
72437;SDS011;60444;43.534;-5.674;2023-02-01T16:53:37;7.70;;;1.38;;
72437;SDS011;60444;43.534;-5.674;2023-02-01T16:56:13;8.57;;;1.00;;
72437;SDS011;60444;43.534;-5.674;2023-02-01T16:58:44;5.65;;;1.17;;
72437;SDS011;60444;43.534;-5.674;2023-02-01T17:01:11;6.15;;;1.38;;
72437;SDS011;60444;43.534;-5.674;2023-02-01T17:03:38;6.50;;;1.20;;
72437;SDS011;60444;43.534;-5.674;2023-02-01T17:06:05;6.55;;;1.48;;
72437;SDS011;60444;43.534;-5.674;2023-02-01T17:08:37;4.97;;;1.00;;
72437;SDS011;60444;43.534;-5.674;2023-02-01T17:11:07;4.70;;;1.33;;
72437;SDS011;60444;43.534;-5.674;2023-02-01T17:13:35;8.10;;;1.80;;
72437;SDS011;60444;43.534;-5.674;2023-02-01T17:16:08;8.63;;;1.30;;
72437;SDS011;60444;43.534;-5.674;2023-02-01T17:18:42;6.97;;;1.50;;
72437;SDS011;60444;43.534;-5.674;2023-02-01T17:21:09;7.10;;;1.52;;
72437;SDS011;60444;43.534;-5.674;2023-02-01T17:23:35;7.07;;;1.45;;
72437;SDS011;60444;43.534;-5.674;2023-02-01T17:26:01;9.70;;;1.63;;
72437;SDS011;60444;43.534;-5.674;2023-02-01T17:28:27;8.77;;;1.42;;
72437;SDS011;60444;43.534;-5.674;2023-02-01T17:30:53;7.05;;;1.50;;
72437;SDS011;60444;43.534;-5.674;2023-02-01T17:35:59;6.90;;;1.20;;
72437;SDS011;60444;43.534;-5.674;2023-02-01T17:38:25;5.53;;;0.90;;
72437;SDS011;60444;43.534;-5.674;2023-02-01T17:40:51;5.95;;;1.75;;
72437;SDS011;60444;43.534;-5.674;2023-02-01T17:43:21;6.60;;;1.23;;
72437;SDS011;60444;43.534;-5.674;2023-02-01T17:45:49;8.50;;;1.40;;
72437;SDS011;60444;43.534;-5.674;2023-02-01T17:48:42;4.97;;;1.38;;
72437;SDS011;60444;43.534;-5.674;2023-02-01T17:51:18;5.90;;;1.48;;
72437;SDS011;60444;43.534;-5.674;2023-02-01T17:53:46;8.32;;;1.70;;
72437;SDS011;60444;43.534;-5.674;2023-02-01T17:56:13;5.37;;;1.47;;